createdAt,value
2022-07-29T00:01:42.129Z,19.60
2022-07-29T00:04:09.285Z,19.70
2022-07-29T00:06:36.439Z,19.80
2022-07-29T00:09:04.006Z,19.90
2022-07-29T00:11:31.210Z,20.00
2022-07-29T00:13:58.858Z,20.10
2022-07-29T00:16:27.244Z,20.30
2022-07-29T00:19:00.619Z,20.50
2022-07-29T00:21:29.405Z,20.30
2022-07-29T00:23:56.666Z,20.10
2022-07-29T00:26:24.084Z,19.80
2022-07-29T00:28:51.057Z,19.40
2022-07-29T00:31:18.169Z,19.20
2022-07-29T00:33:45.377Z,19.20
2022-07-29T00:36:12.480Z,19.20
2022-07-29T00:38:39.472Z,19.30
2022-07-29T00:41:06.396Z,19.40
2022-07-29T00:43:33.352Z,19.40
2022-07-29T00:46:00.810Z,19.40
2022-07-29T00:48:27.790Z,19.50
2022-07-29T00:50:58.698Z,19.60
2022-07-29T00:53:26.704Z,19.70
2022-07-29T00:55:58.172Z,19.70
2022-07-29T00:58:25.906Z,19.60
2022-07-29T01:00:54.496Z,19.60
2022-07-29T01:03:21.684Z,19.50
2022-07-29T01:05:51.591Z,19.50
2022-07-29T01:08:20.206Z,19.60
2022-07-29T01:10:48.376Z,19.60
2022-07-29T01:13:18.720Z,19.50
2022-07-29T01:15:50.454Z,19.60
2022-07-29T01:18:22.794Z,19.60
2022-07-29T01:21:06.366Z,19.60
2022-07-29T01:23:42.319Z,19.70
2022-07-29T01:26:46.129Z,19.80
2022-07-29T01:29:16.752Z,19.90
2022-07-29T01:31:59.143Z,19.90
2022-07-29T01:34:50.420Z,19.90
2022-07-29T01:37:28.587Z,20.00
2022-07-29T01:39:58.271Z,20.10
2022-07-29T01:42:35.162Z,20.10
2022-07-29T01:45:24.650Z,20.10
2022-07-29T01:47:57.458Z,20.10
2022-07-29T01:50:31.439Z,20.10
2022-07-29T01:53:01.635Z,20.10
2022-07-29T01:55:33.690Z,20.20
2022-07-29T01:58:03.244Z,20.10
2022-07-29T02:00:33.486Z,19.90
2022-07-29T02:03:06.626Z,19.90
2022-07-29T02:05:36.244Z,19.90
2022-07-29T02:08:04.850Z,19.90
2022-07-29T02:10:35.295Z,19.80
2022-07-29T02:13:04.037Z,19.70
2022-07-29T02:15:34.497Z,19.80
2022-07-29T02:18:19.958Z,19.90
2022-07-29T02:20:50.558Z,19.90
2022-07-29T02:23:21.657Z,19.90
2022-07-29T02:25:52.479Z,19.70
2022-07-29T02:28:22.895Z,19.70
2022-07-29T02:30:53.606Z,19.70
2022-07-29T02:33:22.883Z,19.70
2022-07-29T02:35:51.165Z,19.70
2022-07-29T02:38:37.638Z,19.80
2022-07-29T02:41:13.521Z,19.70
2022-07-29T02:43:44.719Z,19.60
2022-07-29T02:46:28.624Z,19.90
2022-07-29T02:49:20.421Z,19.90
2022-07-29T02:51:54.073Z,19.80
2022-07-29T02:54:33.209Z,19.80
2022-07-29T02:57:04.983Z,19.70
2022-07-29T02:59:35.281Z,19.60
2022-07-29T03:02:06.029Z,19.50
2022-07-29T03:04:35.454Z,19.40
2022-07-29T03:07:04.980Z,19.40
2022-07-29T03:09:32.497Z,19.50
2022-07-29T03:12:01.073Z,19.50
2022-07-29T03:14:28.949Z,19.50
2022-07-29T03:16:57.946Z,19.50
2022-07-29T03:19:26.440Z,19.70
2022-07-29T03:21:56.189Z,19.60
2022-07-29T03:24:41.005Z,19.50
2022-07-29T03:27:08.060Z,19.60
2022-07-29T03:29:35.742Z,19.60
2022-07-29T03:32:08.389Z,19.70
2022-07-29T03:34:37.591Z,19.70
2022-07-29T03:37:05.302Z,19.70
2022-07-29T03:39:37.380Z,19.70
2022-07-29T03:42:08.043Z,19.70
2022-07-29T03:44:37.325Z,19.60
2022-07-29T03:47:07.918Z,19.60
2022-07-29T03:49:37.300Z,19.60
2022-07-29T03:52:05.743Z,19.60
2022-07-29T03:54:33.141Z,19.60
2022-07-29T03:57:02.719Z,19.50
2022-07-29T03:59:32.027Z,19.50
2022-07-29T04:02:01.244Z,19.30
2022-07-29T04:04:28.462Z,19.20
2022-07-29T04:06:55.870Z,19.10
2022-07-29T04:09:22.914Z,19.20
2022-07-29T04:12:02.433Z,19.60
2022-07-29T04:14:34.717Z,19.80
2022-07-29T04:17:05.259Z,19.60
2022-07-29T04:19:33.450Z,19.40
2022-07-29T04:22:00.971Z,19.30
2022-07-29T04:24:28.869Z,19.30
2022-07-29T04:26:58.553Z,19.40
2022-07-29T04:29:25.826Z,19.30
2022-07-29T04:31:53.178Z,19.00
2022-07-29T04:34:20.837Z,19.00
2022-07-29T04:36:48.133Z,18.90
2022-07-29T04:39:19.297Z,18.80
2022-07-29T04:41:50.513Z,18.70
2022-07-29T04:44:18.076Z,18.80
2022-07-29T04:46:46.413Z,18.90
2022-07-29T04:49:14.323Z,18.70
2022-07-29T04:51:41.559Z,18.60
2022-07-29T04:54:09.188Z,18.50
2022-07-29T04:56:36.131Z,18.40
2022-07-29T04:59:03.429Z,18.30
2022-07-29T05:01:30.579Z,18.20
2022-07-29T05:04:00.703Z,18.30
2022-07-29T05:06:27.859Z,18.30
2022-07-29T05:08:54.802Z,18.20
2022-07-29T05:11:24.985Z,18.20
2022-07-29T05:13:55.888Z,18.30
2022-07-29T05:16:23.504Z,18.40
2022-07-29T05:18:51.768Z,18.50
2022-07-29T05:21:19.102Z,18.40
2022-07-29T05:23:46.038Z,18.40
2022-07-29T05:26:13.214Z,18.50
2022-07-29T05:28:40.252Z,18.50
2022-07-29T05:31:07.524Z,18.70
2022-07-29T05:33:37.054Z,18.50
2022-07-29T05:36:09.176Z,18.60
2022-07-29T05:38:37.107Z,18.60
2022-07-29T05:41:05.272Z,18.50
2022-07-29T05:43:32.840Z,18.70
2022-07-29T05:46:00.283Z,18.90
2022-07-29T05:48:27.464Z,18.80
2022-07-29T05:50:55.508Z,18.70
2022-07-29T05:53:22.899Z,18.60
2022-07-29T05:55:50.644Z,18.60
2022-07-29T05:58:17.715Z,18.50
2022-07-29T06:00:45.157Z,18.50
2022-07-29T06:03:12.592Z,18.50
2022-07-29T06:05:39.563Z,18.40
2022-07-29T06:08:08.349Z,18.50
2022-07-29T06:10:38.871Z,18.60
2022-07-29T06:13:06.334Z,18.60
2022-07-29T06:15:34.348Z,18.70
2022-07-29T06:18:02.313Z,18.60
2022-07-29T06:20:33.176Z,18.60
2022-07-29T06:23:01.854Z,18.70
2022-07-29T06:25:38.150Z,18.60
2022-07-29T06:28:05.350Z,18.60
2022-07-29T06:30:32.534Z,18.50
2022-07-29T06:33:01.319Z,18.50
2022-07-29T06:35:41.413Z,18.80
2022-07-29T06:38:25.133Z,18.80
2022-07-29T06:41:01.449Z,18.80
2022-07-29T06:43:32.546Z,18.80
2022-07-29T06:46:04.937Z,18.90
2022-07-29T06:48:32.501Z,19.00
2022-07-29T06:50:59.990Z,19.00
2022-07-29T06:53:28.013Z,18.90
2022-07-29T06:55:54.987Z,19.00
2022-07-29T06:58:22.396Z,19.30
2022-07-29T07:01:05.373Z,19.30
2022-07-29T07:03:35.484Z,19.40
2022-07-29T07:06:03.019Z,19.30
2022-07-29T07:08:30.029Z,19.20
2022-07-29T07:10:57.872Z,19.10
2022-07-29T07:13:25.453Z,19.10
2022-07-29T07:15:53.205Z,19.30
2022-07-29T07:18:20.515Z,19.50
2022-07-29T07:20:49.196Z,19.70
2022-07-29T07:23:16.166Z,19.70
2022-07-29T07:25:43.153Z,19.80
2022-07-29T07:28:10.462Z,20.00
2022-07-29T07:30:37.893Z,20.00
2022-07-29T07:33:07.017Z,20.10
2022-07-29T07:35:35.538Z,20.10
2022-07-29T07:38:04.212Z,20.30
2022-07-29T07:40:33.175Z,20.30
2022-07-29T07:43:02.522Z,20.20
2022-07-29T07:45:29.901Z,20.20
2022-07-29T07:47:56.855Z,20.30
2022-07-29T07:50:23.929Z,20.50
2022-07-29T07:52:54.140Z,20.60
2022-07-29T07:55:22.121Z,20.60
2022-07-29T07:57:49.427Z,20.70
2022-07-29T08:00:18.756Z,20.90
2022-07-29T08:02:46.182Z,20.90
2022-07-29T08:05:18.067Z,20.90
2022-07-29T08:07:47.122Z,21.10
2022-07-29T08:10:37.170Z,21.20
2022-07-29T08:13:09.264Z,21.30
2022-07-29T08:15:36.869Z,21.20
2022-07-29T08:18:08.610Z,21.30
2022-07-29T08:20:39.346Z,21.40
2022-07-29T08:23:10.571Z,21.30
2022-07-29T08:25:40.278Z,21.10
2022-07-29T08:28:07.787Z,21.30
2022-07-29T08:30:35.901Z,21.50
2022-07-29T08:33:04.782Z,21.60
2022-07-29T08:35:35.645Z,21.60
2022-07-29T08:38:04.541Z,21.80
2022-07-29T08:40:34.162Z,21.70
2022-07-29T08:43:08.845Z,21.90
2022-07-29T08:45:49.141Z,21.90
2022-07-29T08:48:23.094Z,21.60
2022-07-29T08:50:57.802Z,21.50
2022-07-29T08:53:28.257Z,21.60
2022-07-29T08:55:56.326Z,21.70
2022-07-29T08:58:25.594Z,21.70
2022-07-29T09:00:56.925Z,21.70
2022-07-29T09:03:26.719Z,22.00
2022-07-29T09:05:54.802Z,22.00
2022-07-29T09:08:22.848Z,22.00
2022-07-29T09:10:50.323Z,22.20
2022-07-29T09:13:17.261Z,22.40
2022-07-29T09:15:45.911Z,22.30
2022-07-29T09:18:20.421Z,22.40
2022-07-29T09:21:16.444Z,22.50
2022-07-29T09:24:10.459Z,22.60
2022-07-29T09:26:43.325Z,22.70
2022-07-29T09:29:14.638Z,22.70
2022-07-29T09:31:44.717Z,22.90
2022-07-29T09:34:14.812Z,22.70
2022-07-29T09:36:48.045Z,22.80
2022-07-29T09:39:17.782Z,23.10
2022-07-29T09:41:56.932Z,23.10
2022-07-29T09:44:25.277Z,23.10
2022-07-29T09:47:07.130Z,22.90
2022-07-29T09:49:50.748Z,23.10
2022-07-29T09:52:18.845Z,23.10
2022-07-29T09:54:46.514Z,23.10
2022-07-29T09:57:31.143Z,23.30
2022-07-29T10:00:09.308Z,23.30
2022-07-29T10:02:41.507Z,23.30
2022-07-29T10:05:20.735Z,23.30
2022-07-29T10:07:53.855Z,23.30
2022-07-29T10:10:29.638Z,23.20
2022-07-29T10:13:04.388Z,23.50
2022-07-29T10:15:39.645Z,23.70
2022-07-29T10:18:10.782Z,23.70
2022-07-29T10:20:38.832Z,23.80
2022-07-29T10:23:06.602Z,24.00
2022-07-29T10:25:34.141Z,24.00
2022-07-29T10:28:01.275Z,24.10
2022-07-29T10:30:30.240Z,24.20
2022-07-29T10:32:57.278Z,24.20
2022-07-29T10:35:35.991Z,24.30
2022-07-29T10:38:29.138Z,24.30
2022-07-29T10:41:29.088Z,24.50
2022-07-29T10:44:19.088Z,24.60
2022-07-29T10:46:48.536Z,24.60
2022-07-29T10:49:24.833Z,24.50
2022-07-29T10:51:57.438Z,24.50
2022-07-29T10:55:00.518Z,24.70
2022-07-29T10:57:53.042Z,24.80
2022-07-29T11:00:18.686Z,24.80
2022-07-29T11:02:50.026Z,24.80
2022-07-29T11:05:21.858Z,24.80
2022-07-29T11:08:19.958Z,24.80
2022-07-29T11:10:49.961Z,25.00
2022-07-29T11:13:46.507Z,25.10
2022-07-29T11:16:16.053Z,25.10
2022-07-29T11:19:14.400Z,25.20
2022-07-29T11:21:54.070Z,25.30
2022-07-29T11:24:33.187Z,25.50
2022-07-29T11:27:13.797Z,25.70
2022-07-29T11:30:04.361Z,25.70
2022-07-29T11:32:40.371Z,26.00
2022-07-29T11:35:37.215Z,26.00
2022-07-29T11:38:29.336Z,25.90
2022-07-29T11:41:17.500Z,25.80
2022-07-29T11:44:01.273Z,25.50
2022-07-29T11:46:50.512Z,25.30
2022-07-29T11:49:31.760Z,25.50
2022-07-29T11:52:03.940Z,25.70
2022-07-29T11:54:38.956Z,25.90
2022-07-29T11:57:21.890Z,25.90
2022-07-29T11:59:50.783Z,26.00
2022-07-29T12:02:37.066Z,26.20
2022-07-29T12:05:10.800Z,26.30
2022-07-29T12:07:40.962Z,26.30
2022-07-29T12:10:19.928Z,26.40
2022-07-29T12:12:56.732Z,26.70
2022-07-29T12:15:39.486Z,27.00
2022-07-29T12:18:18.665Z,26.80
2022-07-29T12:20:47.214Z,26.70
2022-07-29T12:23:16.243Z,26.90
2022-07-29T12:25:45.115Z,27.00
2022-07-29T12:28:26.808Z,26.90
2022-07-29T12:30:55.033Z,26.90
2022-07-29T12:33:30.557Z,27.00
2022-07-29T12:36:08.814Z,27.10
2022-07-29T12:38:41.318Z,27.10
2022-07-29T12:41:08.767Z,27.10
2022-07-29T12:43:38.566Z,27.40
2022-07-29T12:46:14.976Z,27.70
2022-07-29T12:48:44.509Z,27.60
2022-07-29T12:51:15.516Z,27.60
2022-07-29T12:53:42.709Z,27.50
2022-07-29T12:59:13.963Z,27.50
2022-07-29T13:01:41.071Z,27.60
2022-07-29T13:04:08.242Z,27.70
2022-07-29T13:08:29.458Z,27.90
2022-07-29T13:09:42.686Z,28.10
2022-07-29T13:12:12.127Z,28.10
2022-07-29T13:14:47.202Z,28.00
2022-07-29T13:17:17.281Z,28.20
2022-07-29T13:19:49.503Z,28.30
2022-07-29T13:22:18.651Z,28.40
2022-07-29T13:24:55.948Z,28.50
2022-07-29T13:27:24.789Z,28.60
2022-07-29T13:29:55.481Z,28.50
2022-07-29T13:32:28.356Z,28.50
2022-07-29T13:34:57.757Z,28.60
2022-07-29T13:37:28.357Z,28.70
2022-07-29T13:39:56.948Z,28.60
2022-07-29T13:42:25.838Z,28.20
2022-07-29T13:44:53.209Z,28.00
2022-07-29T13:47:21.421Z,27.90
2022-07-29T13:49:50.054Z,27.90
2022-07-29T13:52:17.757Z,27.80
2022-07-29T13:54:45.391Z,27.80
2022-07-29T13:57:13.674Z,27.90
2022-07-29T13:59:42.924Z,27.80
2022-07-29T14:02:11.507Z,27.80
2022-07-29T14:04:39.659Z,27.90
2022-07-29T14:07:08.000Z,28.10
2022-07-29T14:09:41.018Z,28.40
2022-07-29T14:12:13.159Z,28.70
2022-07-29T14:14:42.560Z,28.70
2022-07-29T14:17:10.563Z,28.70
2022-07-29T14:19:40.423Z,28.80
2022-07-29T14:22:08.978Z,28.90
2022-07-29T14:24:37.547Z,28.90
2022-07-29T14:27:08.752Z,28.80
2022-07-29T14:29:37.560Z,28.60
2022-07-29T14:32:11.371Z,28.40
2022-07-29T14:34:39.104Z,28.20
2022-07-29T14:37:07.551Z,28.10
2022-07-29T14:39:42.168Z,28.10
2022-07-29T14:42:12.554Z,28.40
2022-07-29T14:44:42.757Z,28.70
2022-07-29T14:47:10.425Z,28.80
2022-07-29T14:49:37.801Z,28.70
2022-07-29T14:52:05.154Z,28.50
2022-07-29T14:54:32.189Z,28.40
2022-07-29T14:56:59.838Z,28.20
2022-07-29T14:59:27.654Z,28.20
2022-07-29T15:01:56.888Z,28.30
2022-07-29T15:04:24.738Z,28.30
2022-07-29T15:06:53.301Z,28.40
2022-07-29T15:09:21.450Z,28.40
2022-07-29T15:11:48.609Z,28.30
2022-07-29T15:14:15.961Z,28.40
2022-07-29T15:16:48.138Z,28.60
2022-07-29T15:19:15.784Z,28.50
2022-07-29T15:21:48.771Z,28.60
2022-07-29T15:24:19.661Z,28.80
2022-07-29T15:26:47.507Z,29.20
2022-07-29T15:29:15.792Z,29.40
2022-07-29T15:31:43.223Z,29.30
2022-07-29T15:34:11.420Z,29.20
2022-07-29T15:36:54.279Z,29.00
2022-07-29T15:39:23.013Z,28.80
2022-07-29T15:41:51.225Z,28.40
2022-07-29T15:44:22.674Z,28.30
2022-07-29T15:47:07.289Z,28.40
2022-07-29T15:49:47.788Z,28.30
2022-07-29T15:52:26.107Z,27.90
2022-07-29T15:54:57.792Z,27.60
2022-07-29T15:57:25.477Z,27.30
2022-07-29T15:59:52.658Z,27.10
2022-07-29T16:02:20.204Z,26.80
2022-07-29T16:04:47.498Z,26.80
2022-07-29T16:07:15.327Z,26.60
2022-07-29T16:09:48.190Z,26.50
2022-07-29T16:12:19.964Z,26.50
2022-07-29T16:14:49.605Z,26.40
2022-07-29T16:17:18.138Z,26.40
2022-07-29T16:19:45.831Z,26.60
2022-07-29T16:22:13.502Z,26.70
2022-07-29T16:24:40.988Z,26.80
2022-07-29T16:27:08.327Z,27.20
2022-07-29T16:29:37.398Z,27.60
2022-07-29T16:32:05.911Z,27.90
2022-07-29T16:34:33.340Z,28.30
2022-07-29T16:37:00.863Z,28.60
2022-07-29T16:39:29.658Z,28.60
2022-07-29T16:42:00.295Z,28.70
2022-07-29T16:44:28.146Z,28.90
2022-07-29T16:46:58.847Z,29.20
2022-07-29T16:49:27.392Z,29.50
2022-07-29T16:51:54.714Z,29.70
2022-07-29T16:54:23.547Z,29.80
2022-07-29T16:56:50.787Z,29.90
2022-07-29T16:59:18.751Z,29.90
2022-07-29T17:01:45.973Z,30.10
2022-07-29T17:04:14.948Z,30.40
2022-07-29T17:06:42.369Z,30.60
2022-07-29T17:09:10.961Z,30.80
2022-07-29T17:11:52.349Z,31.00
2022-07-29T17:14:25.831Z,31.00
2022-07-29T17:17:00.441Z,30.90
2022-07-29T17:19:33.775Z,30.70
2022-07-29T17:22:09.494Z,30.50
2022-07-29T17:24:40.864Z,30.40
2022-07-29T17:27:09.617Z,30.50
2022-07-29T17:29:38.393Z,30.30
2022-07-29T17:32:08.216Z,30.20
2022-07-29T17:34:36.904Z,30.30
2022-07-29T17:37:08.170Z,30.30
2022-07-29T17:39:35.703Z,30.30
2022-07-29T17:42:04.909Z,30.20
2022-07-29T17:44:36.104Z,30.20
2022-07-29T17:47:05.422Z,30.20
2022-07-29T17:49:33.449Z,30.30
2022-07-29T17:52:03.598Z,30.30
2022-07-29T17:54:30.648Z,30.30
2022-07-29T17:56:57.818Z,30.00
2022-07-29T17:59:24.979Z,30.00
2022-07-29T18:01:53.175Z,30.10
2022-07-29T18:04:21.114Z,30.10
2022-07-29T18:06:48.173Z,30.10
2022-07-29T18:09:16.816Z,30.10
2022-07-29T18:11:44.380Z,29.90
2022-07-29T18:14:14.330Z,29.80
2022-07-29T18:16:41.354Z,29.60
2022-07-29T18:19:08.813Z,29.70
2022-07-29T18:21:42.614Z,29.80
2022-07-29T18:24:18.183Z,29.90
2022-07-29T18:26:45.291Z,30.10
2022-07-29T18:29:12.371Z,30.10
2022-07-29T18:31:41.393Z,29.90
2022-07-29T18:34:08.552Z,29.60
2022-07-29T18:36:36.033Z,29.30
2022-07-29T18:39:03.233Z,28.90
2022-07-29T18:41:30.244Z,28.70
2022-07-29T18:43:57.677Z,28.60
2022-07-29T18:46:25.860Z,28.40
2022-07-29T18:48:53.073Z,28.10
2022-07-29T18:51:20.427Z,28.00
2022-07-29T18:53:47.561Z,27.90
2022-07-29T18:56:14.845Z,27.80
2022-07-29T18:58:41.882Z,27.70
2022-07-29T19:01:09.926Z,27.70
2022-07-29T19:03:39.627Z,27.70
2022-07-29T19:06:06.495Z,27.50
2022-07-29T19:08:36.272Z,27.40
2022-07-29T19:11:03.206Z,27.30
2022-07-29T19:13:31.022Z,27.30
2022-07-29T19:15:58.201Z,27.30
2022-07-29T19:18:25.319Z,27.10
2022-07-29T19:20:52.613Z,27.10
2022-07-29T19:23:19.822Z,27.10
2022-07-29T19:25:53.455Z,27.20
2022-07-29T19:28:22.710Z,27.00
2022-07-29T19:30:50.122Z,26.80
2022-07-29T19:33:19.572Z,26.80
2022-07-29T19:35:49.291Z,26.80
2022-07-29T19:38:19.988Z,26.60
2022-07-29T19:40:49.164Z,26.60
2022-07-29T19:43:51.592Z,26.40
2022-07-29T19:46:03.513Z,26.30
2022-07-29T19:48:31.181Z,26.30
2022-07-29T19:50:58.886Z,26.10
2022-07-29T19:53:25.905Z,26.00
2022-07-29T19:55:53.318Z,26.10
2022-07-29T19:58:23.695Z,26.00
2022-07-29T20:00:54.458Z,25.90
2022-07-29T20:03:21.914Z,25.70
2022-07-29T20:05:53.189Z,25.70
2022-07-29T20:08:21.346Z,25.70
2022-07-29T20:10:48.598Z,25.60
2022-07-29T20:13:15.987Z,25.20
2022-07-29T20:15:43.659Z,25.20
2022-07-29T20:18:10.826Z,25.00
2022-07-29T20:20:38.197Z,25.00
2022-07-29T20:23:06.680Z,24.80
2022-07-29T20:25:33.828Z,24.70
2022-07-29T20:28:01.030Z,24.60
2022-07-29T20:30:28.138Z,24.60
2022-07-29T20:32:56.470Z,24.60
2022-07-29T20:35:25.771Z,24.70
2022-07-29T20:37:56.059Z,24.70
2022-07-29T20:40:25.866Z,24.50
2022-07-29T20:42:54.206Z,24.40
2022-07-29T20:45:23.621Z,24.20
2022-07-29T20:47:52.110Z,24.20
2022-07-29T20:50:24.074Z,24.00
2022-07-29T20:52:52.069Z,23.80
2022-07-29T20:55:19.131Z,24.00
2022-07-29T20:57:46.415Z,24.10
2022-07-29T21:00:14.457Z,24.10
2022-07-29T21:02:42.005Z,24.00
2022-07-29T21:05:09.354Z,24.00
2022-07-29T21:07:36.524Z,23.90
2022-07-29T21:10:04.042Z,23.90
2022-07-29T21:12:31.000Z,23.80
2022-07-29T21:14:58.114Z,23.80
2022-07-29T21:17:25.162Z,23.80
2022-07-29T21:19:53.404Z,23.90
2022-07-29T21:22:22.282Z,23.70
2022-07-29T21:24:50.736Z,23.60
2022-07-29T21:27:38.121Z,23.50
2022-07-29T21:30:07.309Z,23.50
2022-07-29T21:32:34.830Z,23.40
2022-07-29T21:35:02.226Z,23.30
2022-07-29T21:37:29.491Z,23.10
2022-07-29T21:39:56.728Z,23.00
2022-07-29T21:42:23.689Z,22.90
2022-07-29T21:44:51.533Z,22.90
2022-07-29T21:47:18.725Z,22.90
2022-07-29T21:49:47.528Z,23.10
2022-07-29T21:52:18.195Z,23.00
2022-07-29T21:54:45.307Z,22.90
2022-07-29T21:57:12.502Z,22.80
2022-07-29T21:59:39.537Z,22.80
2022-07-29T22:02:07.067Z,22.70
2022-07-29T22:04:36.249Z,22.70
2022-07-29T22:07:03.803Z,22.60
2022-07-29T22:09:31.234Z,22.60
2022-07-29T22:11:58.337Z,22.70
2022-07-29T22:14:25.436Z,22.60
2022-07-29T22:16:53.012Z,22.60
2022-07-29T22:19:27.325Z,22.60
2022-07-29T22:21:54.856Z,22.50
2022-07-29T22:24:22.015Z,22.50
2022-07-29T22:26:49.769Z,22.50
2022-07-29T22:29:17.832Z,22.50
2022-07-29T22:31:45.149Z,22.40
2022-07-29T22:34:15.307Z,22.30
2022-07-29T22:36:43.449Z,22.30
2022-07-29T22:39:11.202Z,22.20
2022-07-29T22:41:42.618Z,22.20
2022-07-29T22:44:09.586Z,22.10
2022-07-29T22:46:36.977Z,22.00
2022-07-29T22:49:05.744Z,22.00
2022-07-29T22:51:33.863Z,22.10
2022-07-29T22:54:00.890Z,21.90
2022-07-29T22:56:27.933Z,21.90
2022-07-29T22:58:55.601Z,22.00
2022-07-29T23:01:37.558Z,21.90
2022-07-29T23:04:06.080Z,21.70
2022-07-29T23:06:35.018Z,21.60
2022-07-29T23:09:02.145Z,21.50
2022-07-29T23:11:29.544Z,21.40
2022-07-29T23:13:56.634Z,21.40
2022-07-29T23:16:26.038Z,21.60
2022-07-29T23:18:53.503Z,21.50
2022-07-29T23:21:20.991Z,21.60
2022-07-29T23:23:49.112Z,21.90
2022-07-29T23:26:17.020Z,21.70
2022-07-29T23:28:45.641Z,21.60
2022-07-29T23:31:13.623Z,21.60
2022-07-29T23:33:41.666Z,21.50
2022-07-29T23:36:08.869Z,21.70
2022-07-29T23:38:39.230Z,21.70
2022-07-29T23:41:09.101Z,21.80
2022-07-29T23:43:37.569Z,21.70
2022-07-29T23:46:06.429Z,21.60
2022-07-29T23:48:34.189Z,21.60
2022-07-29T23:51:01.237Z,21.60
2022-07-29T23:53:29.077Z,21.40
2022-07-29T23:55:57.280Z,21.20
2022-07-29T23:58:24.530Z,21.20
